YRSY weather

Romsey Airport
Romsey, Victoria, Australia

Public forecast

Using degrees Celsius for public forecast. Weather courtesy of forecast.io.

METAR (pilot weather report)

Closest report is Melbourne International Airport, 17.6 nm (32.6 km) SSE. Retrieved 2018/12/10 02:30 UTC (2 minutes ago):

YMML 100230Z 17010KT 140V210 9999 FEW035 20/10 Q1019 NOSIG

TAF (pilot weather forecast)

Forecast is more than 12 hours old.

Closest forecast is Melbourne International Airport, 17.6 nm (32.6 km) SSE. Retrieved 2018/12/09 00:33 UTC (1 day ago):

TAF YMML 092303Z 1000/1106 18014KT 9999 BKN025 BECMG 1000/1002 18015KT CAVOK BECMG 1011/1013 18010KT 9999 SCT010 BKN020 BECMG 1020/1022 14008KT CAVOK FM110200 17012KT CAVOK